Time;durP1;ratioP1;P1;durP2;ratioP2;P2;SDS_P1;SDS_P2;PMS_P1;PMS_P2;Temp;Humidity;BMP_temperature;BMP_pressure;BME280_temperature;BME280_humidity;BME280_pressure;Samples;Min_cycle;Max_cycle;Signal;HPM_P1;HPM_P2
2021/12/13 00:01:20;;;;;;;5.18;3.58;;;;;;;10.83;100.00;101598.34;8381822;27;20166;-61
2021/12/13 00:05:31;;;;;;;5.47;3.55;;;;;;;10.80;100.00;101593.19;8405619;27;20090;-61
2021/12/13 00:09:38;;;;;;;7.57;3.40;;;;;;;10.71;100.00;101578.50;8395273;27;20041;-61
2021/12/13 00:13:46;;;;;;;8.50;3.95;;;;;;;10.70;100.00;101584.88;8405201;27;20040;-61
2021/12/13 00:17:50;;;;;;;9.40;4.00;;;;;;;10.66;100.00;101583.41;8419511;27;20115;-61
2021/12/13 00:21:58;;;;;;;6.07;3.83;;;;;;;10.66;100.00;101599.63;8419094;27;20044;-61
2021/12/13 00:26:01;;;;;;;5.80;3.80;;;;;;;10.64;100.00;101593.44;8399159;27;20033;-61
2021/12/13 00:30:41;;;;;;;4.88;3.60;;;;;;;10.71;100.00;101597.44;8367798;28;20041;-61
2021/12/13 00:34:45;;;;;;;4.63;3.60;;;;;;;10.67;100.00;101595.94;8384862;28;20033;-62
2021/12/13 00:38:50;;;;;;;7.50;3.72;;;;;;;10.59;100.00;101592.97;8377667;28;20512;-62
2021/12/13 00:42:57;;;;;;;5.60;3.45;;;;;;;10.59;100.00;101584.84;8379964;28;20044;-61
2021/12/13 00:47:05;;;;;;;3.33;2.50;;;;;;;10.61;100.00;101593.69;8363064;28;20400;-61
2021/12/13 00:51:12;;;;;;;3.80;2.00;;;;;;;10.60;100.00;101594.66;8382990;28;20043;-62
2021/12/13 00:55:17;;;;;;;3.08;1.92;;;;;;;10.63;100.00;101597.16;8359491;28;20064;-63
2021/12/13 00:59:45;;;;;;;3.53;1.73;;;;;;;10.68;100.00;101594.97;8354757;28;20041;-62
2021/12/13 01:03:49;;;;;;;1.52;1.30;;;;;;;10.64;100.00;101601.56;8361240;28;20025;-61
2021/12/13 01:08:11;;;;;;;2.58;1.30;;;;;;;10.62;100.00;101608.94;8344790;28;20045;-62
2021/12/13 01:12:18;;;;;;;4.90;1.20;;;;;;;10.53;100.00;101603.34;8336187;28;20084;-63
2021/12/13 01:20:57;;;;;;;3.95;1.10;;;;;;;10.54;100.00;101605.94;8288085;28;20441;-62
2021/12/13 01:25:16;;;;;;;4.53;1.30;;;;;;;10.53;100.00;101609.63;8285972;28;20042;-62
2021/12/13 01:29:23;;;;;;;1.33;1.13;;;;;;;10.49;100.00;101616.22;8283576;28;20497;-62
2021/12/13 01:33:27;;;;;;;5.10;2.45;;;;;;;10.40;100.00;101611.50;8285024;28;20064;-62
2021/12/13 01:37:31;;;;;;;4.00;2.45;;;;;;;10.12;100.00;101611.78;8283418;28;20080;-62
2021/12/13 01:41:38;;;;;;;6.20;3.10;;;;;;;10.14;100.00;101608.97;8257966;28;20034;-62
2021/12/13 01:45:41;;;;;;;2.35;1.75;;;;;;;10.18;100.00;101616.75;8250539;28;20049;-62
2021/12/13 01:49:48;;;;;;;2.45;1.83;;;;;;;10.17;100.00;101619.56;8249299;28;20039;-62
2021/12/13 01:53:58;;;;;;;2.22;1.30;;;;;;;10.16;100.00;101616.00;8247552;28;20531;-62
2021/12/13 01:58:20;;;;;;;1.50;1.40;;;;;;;10.13;100.00;101610.84;8246101;28;20062;-62
2021/12/13 02:02:35;;;;;;;3.13;1.45;;;;;;;10.16;100.00;101621.41;8311346;28;20125;-62
2021/12/13 02:06:41;;;;;;;2.40;1.00;;;;;;;10.36;100.00;101628.94;8312787;28;20116;-62
2021/12/13 02:10:48;;;;;;;1.40;1.10;;;;;;;10.47;100.00;101623.59;8285375;28;20247;-62
2021/12/13 02:16:56;;;;;;;1.17;0.70;;;;;;;10.54;100.00;101630.28;8275976;28;20043;-62
2021/12/13 02:19:18;;;;;;;;;;;;;;;10.63;100.00;101634.13;8246918;28;20054;-62
2021/12/13 02:23:20;;;;;;;1.15;0.85;;;;;;;10.73;100.00;101622.53;8247242;28;19922;-62
2021/12/13 02:27:29;;;;;;;1.20;0.90;;;;;;;10.72;100.00;101628.91;8248414;28;20042;-62
2021/12/13 02:31:34;;;;;;;1.50;0.80;;;;;;;10.75;100.00;101628.69;8229936;28;20031;-62
2021/12/13 02:35:50;;;;;;;2.80;0.93;;;;;;;10.75;100.00;101628.69;8228358;28;20038;-62
2021/12/13 02:39:56;;;;;;;2.80;1.05;;;;;;;10.70;100.00;101635.44;8227926;28;20054;-63
2021/12/13 02:44:05;;;;;;;3.55;1.42;;;;;;;10.70;100.00;101635.44;8226995;28;20427;-62
2021/12/13 02:48:09;;;;;;;3.08;1.00;;;;;;;10.61;100.00;101631.53;8227405;28;20034;-62
2021/12/13 02:52:14;;;;;;;3.83;1.13;;;;;;;10.66;100.00;101623.97;8233191;28;20111;-62
2021/12/13 02:56:18;;;;;;;1.15;0.90;;;;;;;10.53;100.00;101622.28;8226275;28;20101;-62
2021/12/13 03:00:44;;;;;;;1.77;1.35;;;;;;;10.47;100.00;101623.59;8209875;28;20071;-62
2021/12/13 03:04:45;;;;;;;2.78;1.50;;;;;;;10.43;100.00;101624.78;8225221;28;20043;-62
2021/12/13 03:08:52;;;;;;;3.72;1.50;;;;;;;10.42;100.00;101633.88;8198202;28;20061;-62
2021/12/13 03:12:53;;;;;;;5.30;3.17;;;;;;;10.32;100.00;101627.44;8222518;28;20038;-62
2021/12/13 03:17:06;;;;;;;3.20;2.30;;;;;;;10.41;100.00;101629.47;8199712;28;20047;-62
2021/12/13 03:21:24;;;;;;;3.78;2.38;;;;;;;10.35;100.00;101629.91;8193111;28;20368;-62
2021/12/13 03:30:07;;;;;;;2.20;1.70;;;;;;;10.35;100.00;101640.72;8414381;27;20472;-62
2021/12/13 03:34:18;;;;;;;1.92;1.30;;;;;;;10.59;100.00;101638.94;8414427;28;20496;-62
2021/12/13 03:38:26;;;;;;;1.38;1.27;;;;;;;10.64;100.00;101636.72;8413929;28;20411;-62
2021/12/13 03:42:37;;;;;;;3.15;1.30;;;;;;;10.64;100.00;101636.72;8413096;28;20556;-62
2021/12/13 03:46:40;;;;;;;2.50;1.60;;;;;;;10.45;100.00;101647.19;8410333;28;20469;-62
2021/12/13 03:50:46;;;;;;;1.80;1.42;;;;;;;10.27;100.00;101648.50;8392794;28;20089;-62
2021/12/13 03:54:47;;;;;;;5.72;2.00;;;;;;;10.22;100.00;101639.91;8388325;28;20033;-62
2021/12/13 03:58:51;;;;;;;4.85;1.92;;;;;;;10.15;100.00;101654.81;8379226;28;20091;-62
2021/12/13 04:02:57;;;;;;;4.45;2.20;;;;;;;10.22;100.00;101650.72;8401527;28;20124;-62
2021/12/13 04:07:05;;;;;;;7.68;3.50;;;;;;;10.23;100.00;101641.63;8411969;28;20032;-62
2021/12/13 04:11:09;;;;;;;3.13;2.38;;;;;;;10.32;100.00;101657.16;8395259;28;20029;-62
2021/12/13 04:15:23;;;;;;;3.30;1.83;;;;;;;10.24;100.00;101656.84;8407995;28;20063;-62
2021/12/13 04:19:23;;;;;;;2.25;1.67;;;;;;;10.29;100.00;101651.97;8394876;28;20032;-62
2021/12/13 04:23:25;;;;;;;3.38;1.77;;;;;;;10.36;100.00;101658.66;8394517;28;20039;-63
2021/12/13 04:27:31;;;;;;;2.55;1.95;;;;;;;10.35;100.00;101651.53;8392809;28;20044;-62
2021/12/13 04:31:36;;;;;;;5.03;2.00;;;;;;;10.30;100.00;101659.09;8379688;28;20107;-62
2021/12/13 04:35:37;;;;;;;2.85;2.10;;;;;;;10.31;100.00;101660.81;8392868;28;20056;-63
2021/12/13 04:39:41;;;;;;;4.45;2.03;;;;;;;10.27;100.00;101664.72;8369090;28;20501;-63
2021/12/13 04:43:42;;;;;;;;;;;;;;;10.17;100.00;101663.66;8346049;28;20060;-63
2021/12/13 04:48:06;;;;;;;2.10;1.80;;;;;;;10.00;100.00;101663.97;8335988;28;20205;-63
2021/12/13 04:52:12;;;;;;;2.88;2.35;;;;;;;9.92;100.00;101660.97;8333162;28;20242;-62
2021/12/13 04:56:17;;;;;;;2.83;2.15;;;;;;;9.92;100.00;101664.50;8337570;28;20387;-62
2021/12/13 05:00:22;;;;;;;6.57;2.78;;;;;;;9.95;100.00;101664.28;8341587;28;20040;-62
2021/12/13 05:04:24;;;;;;;3.85;2.40;;;;;;;10.00;100.00;101672.94;8344147;28;20056;-63
2021/12/13 05:08:27;;;;;;;2.78;1.80;;;;;;;10.23;100.00;101674.03;8338746;28;20052;-63
2021/12/13 05:12:28;;;;;;;4.70;1.63;;;;;;;10.32;100.00;101662.56;8336847;28;20041;-64
2021/12/13 05:16:51;;;;;;;3.53;1.70;;;;;;;10.38;100.00;101678.34;8335423;28;20052;-63
2021/12/13 05:21:04;;;;;;;3.28;1.95;;;;;;;10.34;100.00;101659.75;8335903;28;20091;-63
2021/12/13 05:25:05;;;;;;;3.15;1.90;;;;;;;10.30;100.00;101663.63;8357617;28;20106;-63
2021/12/13 05:29:23;;;;;;;3.40;1.80;;;;;;;10.23;100.00;101663.22;8360728;28;20036;-63
2021/12/13 05:33:27;;;;;;;5.38;2.42;;;;;;;10.20;100.00;101673.38;8350957;28;20049;-63
2021/12/13 05:37:41;;;;;;;5.47;3.72;;;;;;;10.03;100.00;101682.66;8336419;28;20337;-63
2021/12/13 05:41:52;;;;;;;4.30;3.42;;;;;;;10.01;100.00;101679.22;8335646;28;20037;-63
2021/12/13 05:46:05;;;;;;;4.10;3.33;;;;;;;9.97;100.00;101677.69;8339498;28;20040;-63
2021/12/13 05:50:07;;;;;;;6.63;2.60;;;;;;;10.07;100.00;101676.13;8349998;28;20033;-63
2021/12/13 05:54:25;;;;;;;3.20;2.42;;;;;;;10.11;100.00;101680.31;8339023;28;20044;-63
2021/12/13 05:58:48;;;;;;;2.25;1.73;;;;;;;10.12;100.00;101686.59;8365632;28;20082;-63
2021/12/13 06:03:03;;;;;;;2.53;1.77;;;;;;;10.17;100.00;101679.88;8360181;28;20037;-63
2021/12/13 06:07:27;;;;;;;2.65;1.83;;;;;;;10.12;100.00;101684.75;8349132;28;20275;-63
2021/12/13 06:11:32;;;;;;;3.30;2.25;;;;;;;10.16;100.00;101688.97;8372232;28;20052;-63
2021/12/13 06:15:37;;;;;;;4.88;1.75;;;;;;;10.15;100.00;101692.63;8343378;28;20108;-63
2021/12/13 06:19:48;;;;;;;;;;;;;;;10.07;100.00;101689.63;8350490;28;20124;-63
2021/12/13 06:23:48;;;;;;;2.55;1.75;;;;;;;9.98;100.00;101682.13;8355825;28;20275;-63
2021/12/13 06:27:54;;;;;;;2.97;1.77;;;;;;;10.01;100.00;101684.63;8345393;28;20467;-63
2021/12/13 06:31:54;;;;;;;2.03;1.77;;;;;;;9.93;100.00;101692.41;8356153;28;20530;-63
2021/12/13 06:36:01;;;;;;;3.22;1.50;;;;;;;10.04;100.00;101687.09;8352903;28;20453;-63
2021/12/13 06:40:12;;;;;;;3.30;1.60;;;;;;;10.00;100.00;101691.84;8355748;28;20048;-63
2021/12/13 06:44:35;;;;;;;5.93;1.70;;;;;;;9.97;100.00;101693.91;8365444;28;20036;-63
2021/12/13 06:48:41;;;;;;;7.60;5.28;;;;;;;9.92;100.00;101696.91;8368769;28;20035;-63
2021/12/13 06:52:41;;;;;;;8.07;2.55;;;;;;;9.95;100.00;101695.88;8368376;28;20040;-63
2021/12/13 06:56:43;;;;;;;5.95;4.05;;;;;;;9.87;100.00;101698.22;8371178;28;20047;-63
2021/12/13 07:00:45;;;;;;;4.45;2.88;;;;;;;9.82;100.00;101700.38;8370710;28;20037;-63
2021/12/13 07:04:52;;;;;;;5.20;3.10;;;;;;;9.67;100.00;101701.47;8371172;28;20056;-63
2021/12/13 07:09:15;;;;;;;6.30;2.28;;;;;;;9.74;100.00;101706.34;8371222;28;20029;-63
2021/12/13 07:13:39;;;;;;;2.72;1.90;;;;;;;9.85;100.00;101710.97;8370706;28;20047;-63
2021/12/13 07:17:40;;;;;;;1.95;1.60;;;;;;;9.93;100.00;101708.59;8370785;28;20029;-63
2021/12/13 07:21:45;;;;;;;2.78;1.35;;;;;;;9.96;100.00;101706.56;8370849;28;20047;-63
2021/12/13 07:25:49;;;;;;;3.00;1.00;;;;;;;10.09;100.00;101714.69;8370605;28;20751;-63
2021/12/13 07:29:54;;;;;;;2.53;0.90;;;;;;;10.14;100.00;101722.47;8370032;28;20107;-63
2021/12/13 07:34:08;;;;;;;1.85;1.17;;;;;;;10.11;100.00;101722.69;8370305;28;20524;-63
2021/12/13 07:38:26;;;;;;;2.25;1.05;;;;;;;10.13;100.00;101727.03;8370183;28;20161;-63
2021/12/13 07:42:32;;;;;;;3.03;1.30;;;;;;;10.05;100.00;101734.75;8369901;28;20110;-63
2021/12/13 07:46:33;;;;;;;2.38;1.10;;;;;;;10.11;100.00;101728.97;8358759;28;20039;-63
2021/12/13 07:50:36;;;;;;;2.13;1.17;;;;;;;10.14;100.00;101731.44;8368065;28;20480;-63
2021/12/13 07:54:41;;;;;;;4.38;1.27;;;;;;;10.16;100.00;101734.91;8368848;28;20044;-63
2021/12/13 07:58:46;;;;;;;2.80;1.35;;;;;;;10.23;100.00;101744.31;8370536;28;20040;-63
2021/12/13 08:03:07;;;;;;;3.03;0.90;;;;;;;10.30;100.00;101744.72;8370302;28;20028;-63
2021/12/13 08:07:15;;;;;;;1.70;1.30;;;;;;;10.31;100.00;101752.72;8370082;28;20025;-63
2021/12/13 08:11:18;;;;;;;5.68;1.30;;;;;;;10.37;100.00;101752.28;8370027;28;20049;-63
2021/12/13 08:15:24;;;;;;;4.25;0.90;;;;;;;10.45;100.00;101766.13;8373838;28;20036;-63
2021/12/13 08:19:27;;;;;;;3.88;0.90;;;;;;;10.52;100.00;101772.81;8376149;28;20029;-63
2021/12/13 08:23:35;;;;;;;0.70;0.57;;;;;;;10.49;100.00;101783.84;8375882;28;20029;-63
2021/12/13 08:27:41;;;;;;;0.98;0.68;;;;;;;10.45;100.00;101786.88;8375797;28;20047;-63
2021/12/13 08:31:45;;;;;;;1.77;0.70;;;;;;;10.45;100.00;101787.75;8375808;28;20479;-63
2021/12/13 08:35:53;;;;;;;1.45;0.88;;;;;;;10.46;100.00;101789.47;8375870;28;20028;-63
2021/12/13 08:40:02;;;;;;;1.65;1.10;;;;;;;10.54;100.00;101780.81;8375486;28;20025;-63
2021/12/13 08:44:25;;;;;;;6.07;1.55;;;;;;;10.59;100.00;101790.38;8375279;28;20036;-63
2021/12/13 08:48:26;;;;;;;1.73;1.45;;;;;;;10.66;100.00;101786.25;8375244;28;20060;-63
2021/12/13 08:52:34;;;;;;;1.63;1.33;;;;;;;10.74;100.00;101782.97;8373592;28;20037;-63
2021/12/13 08:56:44;;;;;;;1.80;1.42;;;;;;;10.71;100.00;101784.09;8368869;28;20106;-63
2021/12/13 09:01:07;;;;;;;3.72;1.60;;;;;;;10.79;100.00;101781.66;8374537;28;20082;-63
2021/12/13 09:05:14;;;;;;;2.90;1.85;;;;;;;10.80;100.00;101783.38;8374267;28;20036;-63
2021/12/13 09:09:17;;;;;;;2.03;1.80;;;;;;;10.85;100.00;101778.50;8373173;28;20086;-63
2021/12/13 09:13:35;;;;;;;3.17;2.33;;;;;;;10.82;100.00;101777.88;8374292;28;20037;-64
2021/12/13 09:17:41;;;;;;;2.20;1.95;;;;;;;10.94;100.00;101782.38;8374043;28;20067;-64
2021/12/13 09:21:54;;;;;;;3.35;2.25;;;;;;;10.92;100.00;101790.63;8374115;28;20028;-64
2021/12/13 09:26:19;;;;;;;3.03;2.20;;;;;;;10.86;100.00;101782.94;8373379;28;20059;-64
2021/12/13 09:30:46;;;;;;;2.38;1.80;;;;;;;10.84;100.00;101782.22;8373821;28;20123;-64
2021/12/13 09:34:48;;;;;;;2.53;1.92;;;;;;;10.93;100.00;101795.06;8371854;28;20492;-64
2021/12/13 09:39:17;;;;;;;3.33;2.33;;;;;;;11.02;100.00;101798.94;8373427;28;20025;-64
2021/12/13 09:43:20;;;;;;;4.25;2.55;;;;;;;11.02;100.00;101789.00;8371166;28;20037;-64
2021/12/13 09:47:33;;;;;;;4.23;2.30;;;;;;;10.98;100.00;101801.00;8373423;28;20267;-64
2021/12/13 09:51:44;;;;;;;3.58;2.75;;;;;;;11.10;100.00;101794.69;8368988;28;20098;-64
2021/12/13 09:55:48;;;;;;;3.35;2.22;;;;;;;11.15;100.00;101797.94;8373241;28;20052;-64
2021/12/13 09:59:52;;;;;;;2.60;2.20;;;;;;;11.30;100.00;101799.50;8373148;28;20124;-64
2021/12/13 10:04:04;;;;;;;2.92;2.50;;;;;;;11.38;100.00;101794.34;8372408;28;20396;-64
2021/12/13 10:08:08;;;;;;;4.00;2.08;;;;;;;11.40;100.00;101799.66;8368755;28;20033;-64
2021/12/13 10:12:30;;;;;;;3.75;3.28;;;;;;;11.39;100.00;101796.09;8372402;28;20033;-64
2021/12/13 10:16:36;;;;;;;4.25;2.20;;;;;;;11.40;100.00;101791.53;8372437;28;20718;-64
2021/12/13 10:20:41;;;;;;;3.40;1.95;;;;;;;11.47;100.00;101785.53;8368673;28;20044;-64
2021/12/13 10:24:45;;;;;;;2.97;2.55;;;;;;;11.73;100.00;101787.19;8372175;28;20406;-64
2021/12/13 10:28:56;;;;;;;2.85;2.28;;;;;;;11.91;99.69;101784.91;8371926;28;20045;-64
2021/12/13 10:32:58;;;;;;;3.78;2.08;;;;;;;12.20;97.80;101790.78;8371511;28;20030;-64
2021/12/13 10:37:10;;;;;;;3.10;2.80;;;;;;;12.34;97.83;101787.84;8371203;28;20033;-64
2021/12/13 10:41:16;;;;;;;6.60;2.40;;;;;;;12.34;97.95;101793.25;8371486;28;20122;-64
2021/12/13 10:45:21;;;;;;;4.82;2.50;;;;;;;12.41;97.94;101789.09;8371433;28;20432;-64
2021/12/13 10:49:25;;;;;;;3.53;2.05;;;;;;;12.40;98.82;101798.19;8371099;28;20432;-64
2021/12/13 10:53:27;;;;;;;2.10;1.90;;;;;;;12.43;98.00;101787.13;8353487;28;20040;-64
2021/12/13 10:57:33;;;;;;;2.67;1.73;;;;;;;12.45;94.96;101801.44;8371249;28;20020;-64
2021/12/13 11:01:40;;;;;;;1.90;1.70;;;;;;;12.43;94.67;101797.97;8362534;28;20471;-64
2021/12/13 11:05:41;;;;;;;5.28;1.80;;;;;;;12.43;95.46;101795.25;8370755;28;20085;-64
2021/12/13 11:09:44;;;;;;;2.85;1.67;;;;;;;12.36;95.70;101785.88;8370396;28;20037;-64
2021/12/13 11:13:46;;;;;;;2.67;1.55;;;;;;;12.39;94.46;101794.66;8370845;28;20029;-64
2021/12/13 11:17:46;;;;;;;2.47;1.20;;;;;;;12.42;93.18;101791.69;8370578;28;20044;-64
2021/12/13 11:21:50;;;;;;;1.10;1.00;;;;;;;12.52;92.86;101780.97;8370700;28;20044;-64
2021/12/13 11:25:55;;;;;;;1.10;0.95;;;;;;;12.55;93.01;101775.28;8368853;28;20527;-64
2021/12/13 11:29:55;;;;;;;0.95;0.90;;;;;;;12.71;92.22;101786.63;8370578;28;20092;-64
2021/12/13 11:34:04;;;;;;;1.52;1.15;;;;;;;12.60;91.18;101778.50;8370094;28;20057;-64
2021/12/13 11:38:26;;;;;;;1.15;1.00;;;;;;;12.48;92.08;101783.06;8366632;28;20108;-64
2021/12/13 11:43:07;;;;;;;1.33;0.90;;;;;;;12.34;91.36;101787.84;8370388;28;20044;-64
2021/12/13 11:47:47;;;;;;;1.10;0.55;;;;;;;12.21;91.36;101790.66;8366012;28;20037;-64
2021/12/13 11:52:06;;;;;;;1.90;0.80;;;;;;;12.07;91.48;101790.03;8373997;28;20132;-64
2021/12/13 11:56:46;;;;;;;2.78;0.70;;;;;;;12.01;92.17;101780.50;8367465;28;20043;-64
2021/12/13 12:05:44;;;;;;;1.20;0.80;;;;;;;11.81;92.45;101784.75;8405401;27;20970;-63
2021/12/13 12:14:29;;;;;;;1.20;0.70;;;;;;;11.73;92.59;101779.06;8415081;27;20457;-63
2021/12/13 12:18:34;;;;;;;1.30;0.68;;;;;;;11.79;89.84;101778.59;8398512;28;20047;-63
2021/12/13 12:22:53;;;;;;;0.40;0.40;;;;;;;11.76;88.98;101769.84;8397263;28;20039;-63
2021/12/13 12:27:03;;;;;;;0.30;0.30;;;;;;;11.74;87.68;101769.94;8397760;28;20043;-63
2021/12/13 12:31:03;;;;;;;2.30;0.28;;;;;;;11.75;88.92;101768.13;8396782;28;20036;-63
2021/12/13 12:35:12;;;;;;;0.10;0.10;;;;;;;11.74;88.25;101767.25;8397926;28;20094;-63
2021/12/13 12:39:52;;;;;;;2.15;0.20;;;;;;;11.75;88.21;101768.13;8377653;28;20059;-63
2021/12/13 12:43:53;;;;;;;0.25;0.20;;;;;;;11.72;87.33;101766.47;8346904;28;20041;-63
2021/12/13 12:48:20;;;;;;;0.45;0.38;;;;;;;11.68;88.23;101770.41;8347195;28;20029;-63
2021/12/13 12:52:22;;;;;;;0.50;0.20;;;;;;;11.61;88.09;101766.41;8346594;28;20517;-63
2021/12/13 12:56:46;;;;;;;0.43;0.30;;;;;;;11.56;88.42;101767.75;8375037;28;20127;-63
2021/12/13 13:00:47;;;;;;;;;;;;;;;11.57;87.50;101764.94;8394136;28;20249;-63
2021/12/13 13:04:53;;;;;;;0.20;0.20;;;;;;;11.54;87.87;101764.28;8395412;28;19958;-64
2021/12/13 13:08:54;;;;;;;0.40;0.30;;;;;;;11.51;88.34;101769.94;8397113;28;20543;-64
2021/12/13 13:13:06;;;;;;;7.25;0.52;;;;;;;11.46;88.61;101770.28;8394451;28;20040;-64
2021/12/13 13:17:07;;;;;;;0.93;0.30;;;;;;;11.46;88.29;101775.69;8394792;28;20118;-64
2021/12/13 13:21:08;;;;;;;0.40;0.38;;;;;;;11.43;88.21;101769.63;8395738;28;20510;-64
2021/12/13 13:25:19;;;;;;;0.43;0.30;;;;;;;11.41;88.81;101774.34;8361884;28;20032;-66
2021/12/13 13:29:21;;;;;;;0.20;0.20;;;;;;;11.37;88.35;101778.22;8325397;28;20266;-66
2021/12/13 13:33:41;;;;;;;0.40;0.30;;;;;;;11.33;88.80;101771.31;8342951;28;20048;-66
2021/12/13 13:37:43;;;;;;;0.60;0.30;;;;;;;11.34;88.63;101779.31;8336765;28;20045;-66
2021/12/13 13:41:47;;;;;;;1.35;0.30;;;;;;;11.35;89.07;101770.22;8340179;28;20087;-66
2021/12/13 13:45:52;;;;;;;0.50;0.38;;;;;;;11.33;88.80;101772.19;8344404;28;20056;-66
2021/12/13 13:49:54;;;;;;;0.75;0.30;;;;;;;11.33;89.40;101769.50;8339385;28;20060;-66
2021/12/13 13:53:55;;;;;;;1.27;0.60;;;;;;;11.37;89.00;101760.16;8331810;28;20488;-66
2021/12/13 13:58:02;;;;;;;0.98;0.60;;;;;;;11.29;90.68;101770.66;8345711;28;20033;-66
2021/12/13 14:02:07;;;;;;;1.50;0.38;;;;;;;11.22;91.04;101766.72;8354223;28;20048;-65
2021/12/13 14:06:11;;;;;;;0.60;0.38;;;;;;;11.18;91.74;101778.75;8320493;28;20444;-66
2021/12/13 14:10:17;;;;;;;0.63;0.40;;;;;;;11.18;91.55;101781.47;8338429;28;20037;-66
2021/12/13 14:14:19;;;;;;;0.80;0.30;;;;;;;11.17;90.44;101785.16;8336372;28;20112;-65
2021/12/13 14:18:23;;;;;;;0.35;0.17;;;;;;;11.17;90.30;101787.84;8337363;28;20045;-65
2021/12/13 14:22:32;;;;;;;0.50;0.30;;;;;;;11.13;90.92;101786.34;8337902;28;20375;-66
2021/12/13 14:26:32;;;;;;;0.85;0.30;;;;;;;11.12;91.46;101779.19;8338074;28;20059;-66
2021/12/13 14:30:39;;;;;;;1.38;0.38;;;;;;;11.08;91.75;101777.72;8338121;28;20037;-66
2021/12/13 14:34:40;;;;;;;1.05;0.60;;;;;;;11.06;91.29;101776.94;8359640;28;20045;-66
2021/12/13 14:38:46;;;;;;;0.68;0.25;;;;;;;11.05;91.91;101780.66;8367625;28;20040;-66
2021/12/13 14:42:46;;;;;;;2.13;0.40;;;;;;;11.04;90.61;101781.59;8370329;28;20427;-66
2021/12/13 14:46:53;;;;;;;0.30;0.30;;;;;;;11.07;89.10;101781.38;8358536;28;20062;-65
2021/12/13 14:50:58;;;;;;;1.10;0.60;;;;;;;11.11;88.72;101788.31;8345093;28;20094;-66
2021/12/13 14:55:00;;;;;;;;;;;;;;;11.08;88.88;101787.66;8352418;28;20051;-66
2021/12/13 14:59:04;;;;;;;2.28;0.57;;;;;;;11.05;88.99;101794.19;8347561;28;19928;-66
2021/12/13 15:03:10;;;;;;;0.73;0.40;;;;;;;10.97;89.44;101785.75;8335918;28;20056;-65
2021/12/13 15:07:18;;;;;;;1.95;0.65;;;;;;;10.98;89.73;101787.47;8348178;28;20367;-66
2021/12/13 15:11:27;;;;;;;0.80;0.45;;;;;;;10.96;88.98;101794.84;8350253;28;20089;-66
2021/12/13 15:15:33;;;;;;;0.88;0.50;;;;;;;10.91;89.16;101797.00;8342373;28;20041;-66
2021/12/13 15:19:37;;;;;;;4.75;1.88;;;;;;;10.91;88.86;101797.00;8337897;28;20546;-66
2021/12/13 15:23:38;;;;;;;5.53;1.10;;;;;;;10.91;88.40;101786.19;8335047;28;20044;-67
2021/12/13 15:27:42;;;;;;;1.13;0.65;;;;;;;10.82;89.26;101792.25;8341139;28;20485;-66
2021/12/13 15:31:45;;;;;;;0.95;0.60;;;;;;;10.84;88.72;101793.03;8332000;28;20041;-66
2021/12/13 15:35:47;;;;;;;3.22;0.60;;;;;;;10.75;89.36;101791.00;8349951;28;20056;-66
2021/12/13 15:44:13;;;;;;;2.60;0.60;;;;;;;10.76;88.80;101786.41;8368528;27;20468;-66
2021/12/13 15:49:28;;;;;;;2.55;1.13;;;;;;;10.75;88.32;101791.00;8360495;28;20033;-66
2021/12/13 15:52:39;;;;;;;1.75;0.70;;;;;;;10.75;87.67;101784.69;8366759;28;20064;-66
2021/12/13 15:56:44;;;;;;;1.83;0.85;;;;;;;10.96;84.45;101786.72;8367640;28;20041;-67
2021/12/13 16:00:45;;;;;;;2.65;0.50;;;;;;;11.04;83.40;101784.31;8363892;28;20071;-67
2021/12/13 16:04:50;;;;;;;2.47;0.90;;;;;;;10.98;83.90;101786.63;8380635;28;20512;-67
2021/12/13 16:09:10;;;;;;;2.50;1.05;;;;;;;11.01;82.96;101789.09;8356748;28;20277;-68
2021/12/13 16:13:11;;;;;;;1.90;1.20;;;;;;;11.20;80.90;101787.59;8352530;28;20037;-67
2021/12/13 16:17:17;;;;;;;2.85;2.20;;;;;;;11.10;82.44;101783.84;8348221;28;20722;-68
2021/12/13 16:21:20;;;;;;;0.90;0.60;;;;;;;11.12;82.57;101784.63;8338315;28;20036;-68
2021/12/13 16:25:30;;;;;;;0.35;0.30;;;;;;;11.13;82.43;101794.44;8339447;28;20095;-68
2021/12/13 16:29:31;;;;;;;0.50;0.30;;;;;;;11.08;82.88;101799.38;8334075;28;20045;-68
2021/12/13 16:33:41;;;;;;;1.27;0.50;;;;;;;10.97;84.55;101796.56;8335993;28;20044;-67
2021/12/13 16:37:42;;;;;;;0.30;0.30;;;;;;;10.94;84.37;101791.38;8347200;28;20103;-67
2021/12/13 16:41:46;;;;;;;3.63;0.85;;;;;;;10.90;85.03;101794.41;8348782;28;20049;-68
2021/12/13 16:45:51;;;;;;;2.90;1.60;;;;;;;10.88;84.60;101791.81;8348643;28;20045;-68
2021/12/13 16:49:52;;;;;;;6.63;4.30;;;;;;;10.90;84.23;101794.41;8342761;28;20132;-67
2021/12/13 16:53:52;;;;;;;13.00;7.53;;;;;;;10.86;84.81;101799.16;8317809;28;20046;-68
2021/12/13 16:57:56;;;;;;;11.30;6.90;;;;;;;10.66;87.79;101799.75;8320113;28;20136;-67
2021/12/13 17:01:58;;;;;;;14.15;9.00;;;;;;;10.62;87.58;101800.97;8327001;28;20595;-66
2021/12/13 17:06:03;;;;;;;8.35;6.32;;;;;;;10.65;87.84;101799.88;8326656;28;20041;-66
2021/12/13 17:10:17;;;;;;;9.00;7.25;;;;;;;10.51;89.85;101800.84;8317746;28;20421;-66
2021/12/13 17:14:22;;;;;;;5.20;3.60;;;;;;;10.49;89.91;101808.19;8319967;28;20065;-66
2021/12/13 17:22:46;;;;;;;11.82;10.27;;;;;;;10.58;88.30;101799.44;8414441;27;20910;-66
2021/12/13 17:26:56;;;;;;;3.17;1.98;;;;;;;10.57;88.79;101797.72;8344573;28;20037;-66
2021/12/13 17:30:56;;;;;;;3.45;2.17;;;;;;;10.49;90.14;101799.25;8374182;28;20115;-66
2021/12/13 17:34:59;;;;;;;3.13;2.15;;;;;;;10.38;90.65;101818.91;8365767;28;20183;-66
2021/12/13 17:39:00;;;;;;;5.15;3.33;;;;;;;10.32;90.65;101802.25;8372589;28;20241;-66
2021/12/13 17:43:07;;;;;;;4.07;2.90;;;;;;;10.26;91.96;101806.25;8379335;28;20123;-63
2021/12/13 17:47:09;;;;;;;2.30;1.95;;;;;;;10.24;92.53;101805.50;8367415;28;20453;-63
2021/12/13 17:55:22;;;;;;;8.35;5.03;;;;;;;10.37;90.97;101809.06;8486046;27;20124;-63
2021/12/13 17:59:34;;;;;;;2.72;1.35;;;;;;;10.40;90.84;101806.13;8466297;27;20059;-63
2021/12/13 18:03:39;;;;;;;3.33;1.98;;;;;;;10.36;91.48;101804.63;8434412;27;20062;-63
2021/12/13 18:07:48;;;;;;;3.90;1.83;;;;;;;10.33;92.30;101803.97;8448125;27;20032;-64
2021/12/13 18:12:04;;;;;;;4.45;2.70;;;;;;;10.24;93.88;101808.19;8448422;27;20036;-63
2021/12/13 18:16:04;;;;;;;2.95;2.08;;;;;;;10.15;93.50;101803.44;8412922;27;20048;-64
2021/12/13 18:24:22;;;;;;;11.82;9.98;;;;;;;10.28;92.67;101807.00;8392091;27;20422;-64
2021/12/13 18:28:35;;;;;;;8.65;6.50;;;;;;;10.31;91.97;101798.69;8359504;28;20045;-64
2021/12/13 18:32:40;;;;;;;5.65;2.40;;;;;;;10.28;91.96;101801.59;8339603;28;20458;-63
2021/12/13 18:36:48;;;;;;;3.20;1.55;;;;;;;10.26;92.74;101803.56;8376130;28;20072;-63
2021/12/13 18:40:53;;;;;;;3.95;1.80;;;;;;;10.23;93.18;101802.91;8352269;28;20500;-63
2021/12/13 18:45:11;;;;;;;1.90;1.35;;;;;;;10.19;93.60;101802.28;8356238;28;20049;-63
2021/12/13 18:49:17;;;;;;;2.78;1.70;;;;;;;10.19;93.82;101796.88;8376677;28;20037;-63
2021/12/13 18:53:23;;;;;;;2.70;1.83;;;;;;;10.14;94.11;101796.31;8352254;28;20056;-63
2021/12/13 18:57:39;;;;;;;2.97;1.83;;;;;;;10.10;94.73;101802.91;8357420;28;20064;-63
2021/12/13 19:01:39;;;;;;;1.88;1.38;;;;;;;10.09;95.18;101811.97;8361680;28;20049;-64
2021/12/13 19:06:10;;;;;;;2.35;1.50;;;;;;;10.07;95.28;101805.81;8350781;28;20277;-63
2021/12/13 19:10:11;;;;;;;1.80;1.35;;;;;;;10.06;95.72;101790.53;8362534;28;20086;-63
2021/12/13 19:14:17;;;;;;;5.85;3.90;;;;;;;9.96;96.22;101784.03;8347766;28;20072;-63
2021/12/13 19:18:23;;;;;;;15.40;8.93;;;;;;;9.93;97.02;101773.44;8326458;28;20038;-63
2021/12/13 19:22:29;;;;;;;6.00;4.28;;;;;;;9.92;97.37;101771.72;8336107;28;20325;-63
2021/12/13 19:26:33;;;;;;;7.03;3.97;;;;;;;10.01;96.89;101765.69;8337854;28;20052;-63
2021/12/13 19:30:55;;;;;;;3.35;2.53;;;;;;;10.00;97.10;101762.09;8336327;28;20045;-63
2021/12/13 19:35:01;;;;;;;3.97;3.10;;;;;;;9.94;97.38;101758.94;8325726;28;20038;-63
2021/12/13 19:39:13;;;;;;;5.05;3.17;;;;;;;9.97;97.17;101753.34;8320718;28;20382;-63
2021/12/13 19:43:23;;;;;;;2.70;2.30;;;;;;;10.08;95.89;101755.31;8307987;28;20037;-63